sensor_id;sensor_type;location;lat;lon;timestamp;temperature;humidity
26952;DHT22;14507;52.418;13.398;2023-01-06T00:00:23;4.70;99.90
26952;DHT22;14507;52.418;13.398;2023-01-06T00:02:49;4.70;99.90
26952;DHT22;14507;52.418;13.398;2023-01-06T00:05:14;4.70;99.90
26952;DHT22;14507;52.418;13.398;2023-01-06T00:07:40;4.70;99.90
26952;DHT22;14507;52.418;13.398;2023-01-06T00:10:08;4.60;99.90
26952;DHT22;14507;52.418;13.398;2023-01-06T00:12:35;4.70;99.90
26952;DHT22;14507;52.418;13.398;2023-01-06T00:15:00;4.70;99.90
26952;DHT22;14507;52.418;13.398;2023-01-06T00:17:26;4.70;99.90
26952;DHT22;14507;52.418;13.398;2023-01-06T00:19:52;4.70;99.90
26952;DHT22;14507;52.418;13.398;2023-01-06T00:22:17;4.70;99.90
26952;DHT22;14507;52.418;13.398;2023-01-06T00:24:43;4.80;99.90
26952;DHT22;14507;52.418;13.398;2023-01-06T00:27:09;4.70;99.90
26952;DHT22;14507;52.418;13.398;2023-01-06T00:29:35;4.80;99.90
26952;DHT22;14507;52.418;13.398;2023-01-06T00:32:01;4.80;99.90
26952;DHT22;14507;52.418;13.398;2023-01-06T00:34:27;4.60;99.90
26952;DHT22;14507;52.418;13.398;2023-01-06T00:36:53;4.70;99.90
26952;DHT22;14507;52.418;13.398;2023-01-06T00:39:19;4.70;99.90
26952;DHT22;14507;52.418;13.398;2023-01-06T00:41:45;4.60;99.90
26952;DHT22;14507;52.418;13.398;2023-01-06T00:44:30;4.60;99.90
26952;DHT22;14507;52.418;13.398;2023-01-06T00:46:55;4.60;99.90
26952;DHT22;14507;52.418;13.398;2023-01-06T00:49:21;4.50;99.90
26952;DHT22;14507;52.418;13.398;2023-01-06T00:51:47;4.60;99.90
26952;DHT22;14507;52.418;13.398;2023-01-06T00:54:13;4.50;99.90
26952;DHT22;14507;52.418;13.398;2023-01-06T00:56:42;4.50;99.90
26952;DHT22;14507;52.418;13.398;2023-01-06T00:59:09;4.40;99.90
26952;DHT22;14507;52.418;13.398;2023-01-06T01:01:35;4.40;99.90
26952;DHT22;14507;52.418;13.398;2023-01-06T01:04:01;4.40;99.90
26952;DHT22;14507;52.418;13.398;2023-01-06T01:06:27;4.50;99.90
26952;DHT22;14507;52.418;13.398;2023-01-06T01:08:57;4.50;99.90
26952;DHT22;14507;52.418;13.398;2023-01-06T01:11:24;3.60;99.90
26952;DHT22;14507;52.418;13.398;2023-01-06T01:14:19;4.50;99.90
26952;DHT22;14507;52.418;13.398;2023-01-06T01:16:45;4.50;99.90
26952;DHT22;14507;52.418;13.398;2023-01-06T01:19:12;4.60;99.90
26952;DHT22;14507;52.418;13.398;2023-01-06T01:21:38;4.60;99.90
26952;DHT22;14507;52.418;13.398;2023-01-06T01:24:04;4.60;99.90
26952;DHT22;14507;52.418;13.398;2023-01-06T01:26:30;4.60;99.90
26952;DHT22;14507;52.418;13.398;2023-01-06T01:28:56;4.60;99.90
26952;DHT22;14507;52.418;13.398;2023-01-06T01:31:21;4.70;99.90
26952;DHT22;14507;52.418;13.398;2023-01-06T01:33:48;4.70;99.90
26952;DHT22;14507;52.418;13.398;2023-01-06T01:36:15;4.80;99.90
26952;DHT22;14507;52.418;13.398;2023-01-06T01:38:42;4.80;99.90
26952;DHT22;14507;52.418;13.398;2023-01-06T01:41:12;4.80;99.90
26952;DHT22;14507;52.418;13.398;2023-01-06T01:43:47;4.80;99.90
26952;DHT22;14507;52.418;13.398;2023-01-06T01:46:20;4.80;99.90
26952;DHT22;14507;52.418;13.398;2023-01-06T01:48:47;4.90;99.90
26952;DHT22;14507;52.418;13.398;2023-01-06T01:51:17;4.90;99.90
26952;DHT22;14507;52.418;13.398;2023-01-06T01:53:47;4.90;99.90
26952;DHT22;14507;52.418;13.398;2023-01-06T01:56:17;4.90;99.90
26952;DHT22;14507;52.418;13.398;2023-01-06T01:58:52;4.90;99.90
26952;DHT22;14507;52.418;13.398;2023-01-06T02:01:18;4.90;99.90
26952;DHT22;14507;52.418;13.398;2023-01-06T02:03:44;5.00;99.90
26952;DHT22;14507;52.418;13.398;2023-01-06T02:06:14;4.90;99.90
26952;DHT22;14507;52.418;13.398;2023-01-06T02:11:25;4.90;99.90
26952;DHT22;14507;52.418;13.398;2023-01-06T02:14:00;4.90;99.90
26952;DHT22;14507;52.418;13.398;2023-01-06T02:24:42;4.80;99.90
26952;DHT22;14507;52.418;13.398;2023-01-06T02:39:08;4.90;99.90
26952;DHT22;14507;52.418;13.398;2023-01-06T02:41:44;4.80;99.90
26952;DHT22;14507;52.418;13.398;2023-01-06T02:44:30;4.90;99.90
26952;DHT22;14507;52.418;13.398;2023-01-06T02:47:20;4.80;99.90
26952;DHT22;14507;52.418;13.398;2023-01-06T02:49:56;4.90;99.90
26952;DHT22;14507;52.418;13.398;2023-01-06T02:55:08;4.80;99.90
26952;DHT22;14507;52.418;13.398;2023-01-06T02:57:48;4.90;99.90
26952;DHT22;14507;52.418;13.398;2023-01-06T03:00:33;4.80;99.90
26952;DHT22;14507;52.418;13.398;2023-01-06T03:03:02;4.80;99.90
26952;DHT22;14507;52.418;13.398;2023-01-06T03:05:32;4.90;99.90
26952;DHT22;14507;52.418;13.398;2023-01-06T03:08:01;4.90;99.90
26952;DHT22;14507;52.418;13.398;2023-01-06T03:10:29;4.90;99.90
26952;DHT22;14507;52.418;13.398;2023-01-06T03:13:18;4.80;99.90
26952;DHT22;14507;52.418;13.398;2023-01-06T03:15:45;4.90;99.90
26952;DHT22;14507;52.418;13.398;2023-01-06T03:18:11;4.90;99.90
26952;DHT22;14507;52.418;13.398;2023-01-06T03:20:37;4.90;99.90
26952;DHT22;14507;52.418;13.398;2023-01-06T03:23:03;4.90;99.90
26952;DHT22;14507;52.418;13.398;2023-01-06T03:25:28;4.90;99.90
26952;DHT22;14507;52.418;13.398;2023-01-06T03:27:54;5.00;99.90
26952;DHT22;14507;52.418;13.398;2023-01-06T03:30:20;5.00;99.90
26952;DHT22;14507;52.418;13.398;2023-01-06T03:33:11;4.90;99.90
26952;DHT22;14507;52.418;13.398;2023-01-06T03:41:59;4.90;99.90
26952;DHT22;14507;52.418;13.398;2023-01-06T03:44:52;4.90;99.90
26952;DHT22;14507;52.418;13.398;2023-01-06T03:47:26;4.90;99.90
26952;DHT22;14507;52.418;13.398;2023-01-06T03:50:06;4.90;99.90
26952;DHT22;14507;52.418;13.398;2023-01-06T03:52:38;4.90;99.90
26952;DHT22;14507;52.418;13.398;2023-01-06T03:55:15;4.90;99.90
26952;DHT22;14507;52.418;13.398;2023-01-06T03:57:45;5.00;99.90
26952;DHT22;14507;52.418;13.398;2023-01-06T04:00:20;4.90;99.90
26952;DHT22;14507;52.418;13.398;2023-01-06T04:02:47;5.00;99.90
26952;DHT22;14507;52.418;13.398;2023-01-06T04:05:18;5.00;99.90
26952;DHT22;14507;52.418;13.398;2023-01-06T04:07:45;5.00;99.90
26952;DHT22;14507;52.418;13.398;2023-01-06T04:10:11;5.00;99.90
26952;DHT22;14507;52.418;13.398;2023-01-06T04:12:38;5.00;99.90
26952;DHT22;14507;52.418;13.398;2023-01-06T04:15:16;5.00;99.90
26952;DHT22;14507;52.418;13.398;2023-01-06T04:17:44;5.00;99.90
26952;DHT22;14507;52.418;13.398;2023-01-06T04:20:17;5.00;99.90
26952;DHT22;14507;52.418;13.398;2023-01-06T04:22:44;5.00;99.90
26952;DHT22;14507;52.418;13.398;2023-01-06T04:25:09;5.00;99.90
26952;DHT22;14507;52.418;13.398;2023-01-06T04:27:35;5.00;99.90
26952;DHT22;14507;52.418;13.398;2023-01-06T04:30:02;5.10;99.90
26952;DHT22;14507;52.418;13.398;2023-01-06T04:32:28;5.10;99.90
26952;DHT22;14507;52.418;13.398;2023-01-06T04:34:53;5.50;99.90
26952;DHT22;14507;52.418;13.398;2023-01-06T04:37:19;5.10;99.90
26952;DHT22;14507;52.418;13.398;2023-01-06T04:39:45;5.40;99.90
26952;DHT22;14507;52.418;13.398;2023-01-06T04:42:10;5.20;99.90
26952;DHT22;14507;52.418;13.398;2023-01-06T04:44:36;5.10;99.90
26952;DHT22;14507;52.418;13.398;2023-01-06T04:47:02;5.10;99.90
26952;DHT22;14507;52.418;13.398;2023-01-06T04:49:28;5.10;99.90
26952;DHT22;14507;52.418;13.398;2023-01-06T04:51:53;5.10;99.90
26952;DHT22;14507;52.418;13.398;2023-01-06T04:54:19;5.10;99.90
26952;DHT22;14507;52.418;13.398;2023-01-06T04:56:45;5.20;99.90
26952;DHT22;14507;52.418;13.398;2023-01-06T04:59:10;5.20;99.90
26952;DHT22;14507;52.418;13.398;2023-01-06T05:01:36;5.20;99.90
26952;DHT22;14507;52.418;13.398;2023-01-06T05:04:02;5.20;99.90
26952;DHT22;14507;52.418;13.398;2023-01-06T05:06:30;5.20;99.90
26952;DHT22;14507;52.418;13.398;2023-01-06T05:08:56;5.20;99.90
26952;DHT22;14507;52.418;13.398;2023-01-06T05:11:23;5.20;99.90
26952;DHT22;14507;52.418;13.398;2023-01-06T05:13:49;5.20;99.90
26952;DHT22;14507;52.418;13.398;2023-01-06T05:16:47;5.20;99.90
26952;DHT22;14507;52.418;13.398;2023-01-06T05:19:13;5.20;99.90
26952;DHT22;14507;52.418;13.398;2023-01-06T05:21:39;5.20;99.90
26952;DHT22;14507;52.418;13.398;2023-01-06T05:24:04;5.20;99.90
26952;DHT22;14507;52.418;13.398;2023-01-06T05:26:30;5.20;99.90
26952;DHT22;14507;52.418;13.398;2023-01-06T05:28:56;5.20;99.90
26952;DHT22;14507;52.418;13.398;2023-01-06T05:31:22;5.20;99.90
26952;DHT22;14507;52.418;13.398;2023-01-06T05:33:48;5.20;99.90
26952;DHT22;14507;52.418;13.398;2023-01-06T05:36:15;5.30;99.90
26952;DHT22;14507;52.418;13.398;2023-01-06T05:38:41;5.20;99.90
26952;DHT22;14507;52.418;13.398;2023-01-06T05:41:07;5.30;99.90
26952;DHT22;14507;52.418;13.398;2023-01-06T05:43:35;5.30;99.90
26952;DHT22;14507;52.418;13.398;2023-01-06T05:46:08;5.30;99.90
26952;DHT22;14507;52.418;13.398;2023-01-06T05:48:35;5.40;99.90
26952;DHT22;14507;52.418;13.398;2023-01-06T05:51:10;5.30;99.90
26952;DHT22;14507;52.418;13.398;2023-01-06T05:53:38;5.30;99.90
26952;DHT22;14507;52.418;13.398;2023-01-06T05:56:05;5.40;99.90
26952;DHT22;14507;52.418;13.398;2023-01-06T05:58:31;5.30;99.90
26952;DHT22;14507;52.418;13.398;2023-01-06T06:01:02;5.40;99.90
26952;DHT22;14507;52.418;13.398;2023-01-06T06:03:28;5.40;99.90
26952;DHT22;14507;52.418;13.398;2023-01-06T06:05:53;5.40;99.90
26952;DHT22;14507;52.418;13.398;2023-01-06T06:08:19;5.40;99.90
26952;DHT22;14507;52.418;13.398;2023-01-06T06:10:45;5.40;99.90
26952;DHT22;14507;52.418;13.398;2023-01-06T06:13:10;5.30;99.90
26952;DHT22;14507;52.418;13.398;2023-01-06T06:15:36;5.40;99.90
26952;DHT22;14507;52.418;13.398;2023-01-06T06:18:02;5.40;99.90
26952;DHT22;14507;52.418;13.398;2023-01-06T06:20:28;5.40;99.90
26952;DHT22;14507;52.418;13.398;2023-01-06T06:22:53;5.40;99.90
26952;DHT22;14507;52.418;13.398;2023-01-06T06:25:20;5.40;99.90
26952;DHT22;14507;52.418;13.398;2023-01-06T06:27:46;5.40;99.90
26952;DHT22;14507;52.418;13.398;2023-01-06T06:30:11;5.50;99.90
26952;DHT22;14507;52.418;13.398;2023-01-06T06:32:37;5.50;99.90
26952;DHT22;14507;52.418;13.398;2023-01-06T06:35:03;5.50;99.90
26952;DHT22;14507;52.418;13.398;2023-01-06T06:37:29;5.50;99.90
26952;DHT22;14507;52.418;13.398;2023-01-06T06:39:54;5.40;99.90
26952;DHT22;14507;52.418;13.398;2023-01-06T06:42:20;5.50;99.90
26952;DHT22;14507;52.418;13.398;2023-01-06T06:44:46;5.50;99.90
26952;DHT22;14507;52.418;13.398;2023-01-06T06:47:11;5.50;99.90
26952;DHT22;14507;52.418;13.398;2023-01-06T06:49:38;5.60;99.90
26952;DHT22;14507;52.418;13.398;2023-01-06T06:52:04;5.60;99.90
26952;DHT22;14507;52.418;13.398;2023-01-06T06:54:29;5.60;99.90
26952;DHT22;14507;52.418;13.398;2023-01-06T06:56:55;5.60;99.90
26952;DHT22;14507;52.418;13.398;2023-01-06T06:59:21;5.70;99.90
26952;DHT22;14507;52.418;13.398;2023-01-06T07:01:47;5.70;99.90
26952;DHT22;14507;52.418;13.398;2023-01-06T07:04:12;5.60;99.90
26952;DHT22;14507;52.418;13.398;2023-01-06T07:06:38;5.60;99.90
26952;DHT22;14507;52.418;13.398;2023-01-06T07:09:04;5.70;99.90
26952;DHT22;14507;52.418;13.398;2023-01-06T07:11:30;5.70;99.90
26952;DHT22;14507;52.418;13.398;2023-01-06T07:13:56;5.70;99.90
26952;DHT22;14507;52.418;13.398;2023-01-06T07:16:21;5.80;99.90
26952;DHT22;14507;52.418;13.398;2023-01-06T07:18:49;5.80;99.90
26952;DHT22;14507;52.418;13.398;2023-01-06T07:21:15;5.60;99.90
26952;DHT22;14507;52.418;13.398;2023-01-06T07:23:40;5.80;99.90
26952;DHT22;14507;52.418;13.398;2023-01-06T07:26:06;5.80;99.90
26952;DHT22;14507;52.418;13.398;2023-01-06T07:28:32;5.80;99.90
26952;DHT22;14507;52.418;13.398;2023-01-06T07:30:58;5.90;99.90
26952;DHT22;14507;52.418;13.398;2023-01-06T07:33:24;5.80;99.90
26952;DHT22;14507;52.418;13.398;2023-01-06T07:35:54;5.80;99.90
26952;DHT22;14507;52.418;13.398;2023-01-06T07:38:20;5.80;99.90
26952;DHT22;14507;52.418;13.398;2023-01-06T07:40:46;5.80;99.90
26952;DHT22;14507;52.418;13.398;2023-01-06T07:43:12;5.90;99.90
26952;DHT22;14507;52.418;13.398;2023-01-06T07:45:38;5.90;99.90
26952;DHT22;14507;52.418;13.398;2023-01-06T07:48:04;5.90;99.90
26952;DHT22;14507;52.418;13.398;2023-01-06T07:50:30;5.90;99.90
26952;DHT22;14507;52.418;13.398;2023-01-06T07:53:00;5.90;99.90
26952;DHT22;14507;52.418;13.398;2023-01-06T07:55:26;5.90;99.90
26952;DHT22;14507;52.418;13.398;2023-01-06T07:57:52;5.90;99.90
26952;DHT22;14507;52.418;13.398;2023-01-06T08:00:19;6.00;99.90
26952;DHT22;14507;52.418;13.398;2023-01-06T08:02:44;6.00;99.90
26952;DHT22;14507;52.418;13.398;2023-01-06T08:05:10;6.00;99.90
26952;DHT22;14507;52.418;13.398;2023-01-06T08:07:36;6.00;99.90
26952;DHT22;14507;52.418;13.398;2023-01-06T08:10:02;6.10;99.90
26952;DHT22;14507;52.418;13.398;2023-01-06T08:12:28;6.20;99.90
26952;DHT22;14507;52.418;13.398;2023-01-06T08:14:53;6.20;99.90
26952;DHT22;14507;52.418;13.398;2023-01-06T08:17:19;6.10;99.90
26952;DHT22;14507;52.418;13.398;2023-01-06T08:19:45;6.20;99.90
26952;DHT22;14507;52.418;13.398;2023-01-06T08:22:10;6.20;99.90
26952;DHT22;14507;52.418;13.398;2023-01-06T08:24:36;6.20;99.90
26952;DHT22;14507;52.418;13.398;2023-01-06T08:27:02;6.30;99.90
26952;DHT22;14507;52.418;13.398;2023-01-06T08:29:27;6.20;99.90
26952;DHT22;14507;52.418;13.398;2023-01-06T08:31:53;6.20;99.90
26952;DHT22;14507;52.418;13.398;2023-01-06T08:34:19;6.30;99.90
26952;DHT22;14507;52.418;13.398;2023-01-06T08:36:45;6.30;99.90
26952;DHT22;14507;52.418;13.398;2023-01-06T08:39:12;6.40;99.90
26952;DHT22;14507;52.418;13.398;2023-01-06T08:41:38;6.40;99.90
26952;DHT22;14507;52.418;13.398;2023-01-06T08:44:04;6.50;99.90
26952;DHT22;14507;52.418;13.398;2023-01-06T08:46:31;6.50;99.90
26952;DHT22;14507;52.418;13.398;2023-01-06T08:48:57;6.50;99.90
26952;DHT22;14507;52.418;13.398;2023-01-06T08:51:23;6.50;99.90
26952;DHT22;14507;52.418;13.398;2023-01-06T08:53:51;6.60;99.90
26952;DHT22;14507;52.418;13.398;2023-01-06T08:56:23;6.60;99.90
26952;DHT22;14507;52.418;13.398;2023-01-06T08:59:10;6.70;99.90
26952;DHT22;14507;52.418;13.398;2023-01-06T09:01:36;6.70;99.90
26952;DHT22;14507;52.418;13.398;2023-01-06T09:04:04;6.80;99.90
26952;DHT22;14507;52.418;13.398;2023-01-06T09:06:30;6.80;99.90
26952;DHT22;14507;52.418;13.398;2023-01-06T09:08:57;6.80;99.90
26952;DHT22;14507;52.418;13.398;2023-01-06T09:11:24;6.80;99.90
26952;DHT22;14507;52.418;13.398;2023-01-06T09:13:51;6.80;99.90
26952;DHT22;14507;52.418;13.398;2023-01-06T09:16:17;6.80;99.90
26952;DHT22;14507;52.418;13.398;2023-01-06T09:18:43;6.80;99.90
26952;DHT22;14507;52.418;13.398;2023-01-06T09:21:14;6.80;99.90
26952;DHT22;14507;52.418;13.398;2023-01-06T09:23:40;6.80;99.90
26952;DHT22;14507;52.418;13.398;2023-01-06T09:26:06;6.90;99.90
26952;DHT22;14507;52.418;13.398;2023-01-06T09:28:31;6.90;99.90
26952;DHT22;14507;52.418;13.398;2023-01-06T09:30:57;6.90;99.90
26952;DHT22;14507;52.418;13.398;2023-01-06T09:33:23;7.00;99.90
26952;DHT22;14507;52.418;13.398;2023-01-06T09:35:48;7.10;99.90
26952;DHT22;14507;52.418;13.398;2023-01-06T09:38:14;7.00;99.90
26952;DHT22;14507;52.418;13.398;2023-01-06T09:43:44;7.20;99.90
26952;DHT22;14507;52.418;13.398;2023-01-06T09:46:14;7.20;99.90
26952;DHT22;14507;52.418;13.398;2023-01-06T09:51:20;7.30;99.90
26952;DHT22;14507;52.418;13.398;2023-01-06T09:53:55;7.40;99.90
26952;DHT22;14507;52.418;13.398;2023-01-06T09:56:23;7.40;99.90
26952;DHT22;14507;52.418;13.398;2023-01-06T09:59:19;7.30;99.90
26952;DHT22;14507;52.418;13.398;2023-01-06T10:01:48;7.50;99.90
26952;DHT22;14507;52.418;13.398;2023-01-06T10:04:19;7.50;99.90
26952;DHT22;14507;52.418;13.398;2023-01-06T10:15:21;7.70;99.90
26952;DHT22;14507;52.418;13.398;2023-01-06T10:23:49;7.80;99.90
26952;DHT22;14507;52.418;13.398;2023-01-06T10:26:27;7.80;99.90
26952;DHT22;14507;52.418;13.398;2023-01-06T10:29:38;7.90;99.90
26952;DHT22;14507;52.418;13.398;2023-01-06T10:31:47;7.90;99.90
26952;DHT22;14507;52.418;13.398;2023-01-06T10:34:21;7.90;99.90
26952;DHT22;14507;52.418;13.398;2023-01-06T10:37:01;8.00;99.90
26952;DHT22;14507;52.418;13.398;2023-01-06T10:39:29;8.00;99.90
26952;DHT22;14507;52.418;13.398;2023-01-06T10:45:12;8.20;99.90
26952;DHT22;14507;52.418;13.398;2023-01-06T10:47:40;8.30;99.90
26952;DHT22;14507;52.418;13.398;2023-01-06T10:50:11;8.40;99.90
26952;DHT22;14507;52.418;13.398;2023-01-06T10:52:38;8.50;99.90
26952;DHT22;14507;52.418;13.398;2023-01-06T10:55:04;8.50;99.90
26952;DHT22;14507;52.418;13.398;2023-01-06T10:57:38;8.60;99.90
26952;DHT22;14507;52.418;13.398;2023-01-06T11:00:21;8.60;99.90
26952;DHT22;14507;52.418;13.398;2023-01-06T11:02:52;8.70;99.90
26952;DHT22;14507;52.418;13.398;2023-01-06T11:05:27;8.70;99.90
26952;DHT22;14507;52.418;13.398;2023-01-06T11:10:35;8.80;99.90
26952;DHT22;14507;52.418;13.398;2023-01-06T11:13:04;8.80;99.90
26952;DHT22;14507;52.418;13.398;2023-01-06T11:15:37;8.90;99.90
26952;DHT22;14507;52.418;13.398;2023-01-06T11:18:05;9.00;99.90
26952;DHT22;14507;52.418;13.398;2023-01-06T11:20:33;9.00;99.90
26952;DHT22;14507;52.418;13.398;2023-01-06T11:23:18;9.00;99.90
26952;DHT22;14507;52.418;13.398;2023-01-06T11:26:03;9.00;99.90
26952;DHT22;14507;52.418;13.398;2023-01-06T11:28:29;9.10;99.90
26952;DHT22;14507;52.418;13.398;2023-01-06T11:31:19;9.10;99.90
26952;DHT22;14507;52.418;13.398;2023-01-06T11:36:24;9.10;99.90
26952;DHT22;14507;52.418;13.398;2023-01-06T11:41:27;9.10;99.90
26952;DHT22;14507;52.418;13.398;2023-01-06T11:44:06;9.10;99.90
26952;DHT22;14507;52.418;13.398;2023-01-06T11:46:32;9.10;99.90
26952;DHT22;14507;52.418;13.398;2023-01-06T11:49:35;9.10;99.90
26952;DHT22;14507;52.418;13.398;2023-01-06T11:52:08;9.10;99.90
26952;DHT22;14507;52.418;13.398;2023-01-06T11:54:44;9.20;99.90
26952;DHT22;14507;52.418;13.398;2023-01-06T12:00:24;9.20;99.90
26952;DHT22;14507;52.418;13.398;2023-01-06T12:05:46;9.30;99.90
26952;DHT22;14507;52.418;13.398;2023-01-06T12:08:31;9.20;99.90
26952;DHT22;14507;52.418;13.398;2023-01-06T12:11:22;9.30;99.90
26952;DHT22;14507;52.418;13.398;2023-01-06T12:13:49;9.40;99.90
26952;DHT22;14507;52.418;13.398;2023-01-06T12:16:23;9.40;99.90
26952;DHT22;14507;52.418;13.398;2023-01-06T12:18:53;9.40;99.90
26952;DHT22;14507;52.418;13.398;2023-01-06T12:21:30;9.40;99.90
26952;DHT22;14507;52.418;13.398;2023-01-06T12:24:01;9.50;99.90
26952;DHT22;14507;52.418;13.398;2023-01-06T12:26:29;9.50;99.90
26952;DHT22;14507;52.418;13.398;2023-01-06T12:28:57;9.60;99.90
26952;DHT22;14507;52.418;13.398;2023-01-06T12:31:29;9.60;99.90
26952;DHT22;14507;52.418;13.398;2023-01-06T12:34:05;9.60;99.90
26952;DHT22;14507;52.418;13.398;2023-01-06T12:39:24;9.70;99.90
26952;DHT22;14507;52.418;13.398;2023-01-06T12:42:08;9.70;99.90
26952;DHT22;14507;52.418;13.398;2023-01-06T12:45:00;9.80;99.90
26952;DHT22;14507;52.418;13.398;2023-01-06T12:47:31;9.90;99.90
26952;DHT22;14507;52.418;13.398;2023-01-06T12:50:06;9.90;99.90
26952;DHT22;14507;52.418;13.398;2023-01-06T12:52:41;9.90;99.90
26952;DHT22;14507;52.418;13.398;2023-01-06T12:55:20;10.00;99.90
26952;DHT22;14507;52.418;13.398;2023-01-06T13:00:52;10.00;99.90
26952;DHT22;14507;52.418;13.398;2023-01-06T13:03:24;10.00;99.90
26952;DHT22;14507;52.418;13.398;2023-01-06T13:06:16;10.00;99.90
26952;DHT22;14507;52.418;13.398;2023-01-06T13:19:50;10.10;99.90
26952;DHT22;14507;52.418;13.398;2023-01-06T13:22:54;10.20;99.90
26952;DHT22;14507;52.418;13.398;2023-01-06T13:39:39;10.40;99.90
26952;DHT22;14507;52.418;13.398;2023-01-06T13:42:06;10.40;99.90
26952;DHT22;14507;52.418;13.398;2023-01-06T13:44:36;10.40;99.90
26952;DHT22;14507;52.418;13.398;2023-01-06T13:47:09;10.40;99.90
26952;DHT22;14507;52.418;13.398;2023-01-06T13:49:37;10.50;99.90
26952;DHT22;14507;52.418;13.398;2023-01-06T13:52:07;10.50;99.90
26952;DHT22;14507;52.418;13.398;2023-01-06T14:05:04;10.50;99.90
26952;DHT22;14507;52.418;13.398;2023-01-06T14:07:38;10.50;99.90
26952;DHT22;14507;52.418;13.398;2023-01-06T14:12:54;10.50;99.90
26952;DHT22;14507;52.418;13.398;2023-01-06T14:15:25;10.50;99.90
26952;DHT22;14507;52.418;13.398;2023-01-06T14:17:53;10.60;99.90
26952;DHT22;14507;52.418;13.398;2023-01-06T14:20:29;10.60;99.90
26952;DHT22;14507;52.418;13.398;2023-01-06T14:23:02;10.50;99.90
26952;DHT22;14507;52.418;13.398;2023-01-06T14:25:31;10.50;99.90
26952;DHT22;14507;52.418;13.398;2023-01-06T14:30:28;10.50;99.90
26952;DHT22;14507;52.418;13.398;2023-01-06T14:35:44;10.50;99.90
26952;DHT22;14507;52.418;13.398;2023-01-06T14:38:48;10.50;99.90
26952;DHT22;14507;52.418;13.398;2023-01-06T14:41:19;10.50;99.90
26952;DHT22;14507;52.418;13.398;2023-01-06T14:43:54;10.50;99.90
26952;DHT22;14507;52.418;13.398;2023-01-06T14:46:25;10.40;99.90
26952;DHT22;14507;52.418;13.398;2023-01-06T14:48:56;10.40;99.90
26952;DHT22;14507;52.418;13.398;2023-01-06T14:51:24;10.40;99.90
26952;DHT22;14507;52.418;13.398;2023-01-06T14:54:13;10.40;99.90
26952;DHT22;14507;52.418;13.398;2023-01-06T14:56:51;10.40;99.90
26952;DHT22;14507;52.418;13.398;2023-01-06T14:59:17;10.30;99.90
26952;DHT22;14507;52.418;13.398;2023-01-06T15:01:54;10.30;99.90
26952;DHT22;14507;52.418;13.398;2023-01-06T15:04:28;10.30;99.90
26952;DHT22;14507;52.418;13.398;2023-01-06T15:06:56;10.30;99.90
26952;DHT22;14507;52.418;13.398;2023-01-06T15:09:22;10.20;99.90
26952;DHT22;14507;52.418;13.398;2023-01-06T15:11:48;10.20;99.90
26952;DHT22;14507;52.418;13.398;2023-01-06T15:14:31;10.20;99.90
26952;DHT22;14507;52.418;13.398;2023-01-06T15:17:00;10.20;99.90
26952;DHT22;14507;52.418;13.398;2023-01-06T15:19:26;10.20;99.90
26952;DHT22;14507;52.418;13.398;2023-01-06T15:21:52;10.10;99.90
26952;DHT22;14507;52.418;13.398;2023-01-06T15:24:29;10.20;99.90
26952;DHT22;14507;52.418;13.398;2023-01-06T15:27:03;10.20;99.90
26952;DHT22;14507;52.418;13.398;2023-01-06T15:29:29;10.20;99.90
26952;DHT22;14507;52.418;13.398;2023-01-06T15:31:55;10.10;99.90
26952;DHT22;14507;52.418;13.398;2023-01-06T15:34:29;10.10;99.90
26952;DHT22;14507;52.418;13.398;2023-01-06T15:36:56;10.10;99.90
26952;DHT22;14507;52.418;13.398;2023-01-06T15:39:28;10.10;99.90
26952;DHT22;14507;52.418;13.398;2023-01-06T15:41:55;10.10;99.90
26952;DHT22;14507;52.418;13.398;2023-01-06T15:46:52;10.00;99.90
26952;DHT22;14507;52.418;13.398;2023-01-06T15:49:28;10.00;99.90
26952;DHT22;14507;52.418;13.398;2023-01-06T15:51:57;10.00;99.90
26952;DHT22;14507;52.418;13.398;2023-01-06T15:54:25;9.90;99.90
26952;DHT22;14507;52.418;13.398;2023-01-06T15:56:52;9.90;99.90
26952;DHT22;14507;52.418;13.398;2023-01-06T15:59:18;9.90;99.90
26952;DHT22;14507;52.418;13.398;2023-01-06T16:01:52;9.90;99.90
26952;DHT22;14507;52.418;13.398;2023-01-06T16:04:20;9.90;99.90
26952;DHT22;14507;52.418;13.398;2023-01-06T16:06:45;9.80;99.90
26952;DHT22;14507;52.418;13.398;2023-01-06T16:12:15;9.90;99.90
26952;DHT22;14507;52.418;13.398;2023-01-06T16:14:50;9.80;99.90
26952;DHT22;14507;52.418;13.398;2023-01-06T16:19:59;9.80;99.90
26952;DHT22;14507;52.418;13.398;2023-01-06T16:22:37;9.80;99.90
26952;DHT22;14507;52.418;13.398;2023-01-06T16:25:26;9.80;99.90
26952;DHT22;14507;52.418;13.398;2023-01-06T16:27:54;9.80;99.90
26952;DHT22;14507;52.418;13.398;2023-01-06T16:30:31;9.70;99.90
26952;DHT22;14507;52.418;13.398;2023-01-06T16:33:01;9.80;99.90
26952;DHT22;14507;52.418;13.398;2023-01-06T16:35:29;9.70;99.90
26952;DHT22;14507;52.418;13.398;2023-01-06T16:37:54;9.70;99.90
26952;DHT22;14507;52.418;13.398;2023-01-06T16:40:22;9.70;99.90
26952;DHT22;14507;52.418;13.398;2023-01-06T16:42:49;9.70;99.90
26952;DHT22;14507;52.418;13.398;2023-01-06T16:48:04;9.60;99.90
26952;DHT22;14507;52.418;13.398;2023-01-06T16:50:48;9.60;99.90
26952;DHT22;14507;52.418;13.398;2023-01-06T16:53:20;9.60;99.90
26952;DHT22;14507;52.418;13.398;2023-01-06T16:55:52;9.60;99.90
26952;DHT22;14507;52.418;13.398;2023-01-06T16:58:23;9.50;99.90
26952;DHT22;14507;52.418;13.398;2023-01-06T17:00:51;9.60;99.90
26952;DHT22;14507;52.418;13.398;2023-01-06T17:03:28;9.50;99.90
26952;DHT22;14507;52.418;13.398;2023-01-06T17:05:54;9.50;99.90
26952;DHT22;14507;52.418;13.398;2023-01-06T17:08:32;9.50;99.90
26952;DHT22;14507;52.418;13.398;2023-01-06T17:11:00;9.60;99.90
26952;DHT22;14507;52.418;13.398;2023-01-06T17:13:27;9.60;99.90
26952;DHT22;14507;52.418;13.398;2023-01-06T17:16:13;9.60;99.90
26952;DHT22;14507;52.418;13.398;2023-01-06T17:18:56;9.50;99.90
26952;DHT22;14507;52.418;13.398;2023-01-06T17:21:33;9.50;99.90
26952;DHT22;14507;52.418;13.398;2023-01-06T17:24:13;9.50;99.90
26952;DHT22;14507;52.418;13.398;2023-01-06T17:26:56;9.60;99.90
26952;DHT22;14507;52.418;13.398;2023-01-06T17:29:22;9.60;99.90
26952;DHT22;14507;52.418;13.398;2023-01-06T17:31:51;9.60;99.90
26952;DHT22;14507;52.418;13.398;2023-01-06T17:34:45;9.60;99.90
26952;DHT22;14507;52.418;13.398;2023-01-06T17:37:15;9.60;99.90
26952;DHT22;14507;52.418;13.398;2023-01-06T17:39:43;9.60;99.90
26952;DHT22;14507;52.418;13.398;2023-01-06T17:44:40;9.60;99.90
26952;DHT22;14507;52.418;13.398;2023-01-06T17:49:54;9.50;99.90
26952;DHT22;14507;52.418;13.398;2023-01-06T17:52:28;9.50;99.90
26952;DHT22;14507;52.418;13.398;2023-01-06T17:54:58;9.50;99.90
26952;DHT22;14507;52.418;13.398;2023-01-06T17:57:45;9.50;99.90
26952;DHT22;14507;52.418;13.398;2023-01-06T18:00:33;9.50;99.90
26952;DHT22;14507;52.418;13.398;2023-01-06T18:03:04;9.40;99.90